Time;durP1;ratioP1;P1;durP2;ratioP2;P2;SDS_P1;SDS_P2;PMS_P1;PMS_P2;Temp;Humidity;BMP_temperature;BMP_pressure;BME280_temperature;BME280_humidity;BME280_pressure;Samples;Min_cycle;Max_cycle;Signal;HPM_P1;HPM_P2
2021/11/25 00:05:52;;;;;;;11.52;6.25;;;4.90;99.90;;;;;;12279582;28;20075;-38
2021/11/25 00:11:54;;;;;;;8.57;5.80;;;4.90;99.90;;;;;;12281180;28;20138;-39
2021/11/25 00:17:57;;;;;;;10.27;6.50;;;4.90;99.90;;;;;;12282893;28;20086;-39
2021/11/25 00:23:59;;;;;;;9.13;5.55;;;4.90;99.90;;;;;;12279201;28;20415;-39
2021/11/25 00:30:04;;;;;;;12.48;6.28;;;4.90;99.90;;;;;;12285857;28;20542;-39
2021/11/25 00:36:07;;;;;;;9.63;6.25;;;4.90;99.90;;;;;;12277841;28;20082;-39
2021/11/25 00:42:09;;;;;;;9.40;6.15;;;4.90;99.90;;;;;;12280639;28;20528;-37
2021/11/25 00:48:11;;;;;;;11.38;7.03;;;4.90;99.90;;;;;;12274771;28;20130;-39
2021/11/25 00:54:16;;;;;;;11.82;7.03;;;4.90;99.90;;;;;;12262247;28;20043;-39
2021/11/25 01:00:20;;;;;;;11.00;6.72;;;4.90;99.90;;;;;;12285696;28;20047;-39
2021/11/25 01:06:27;;;;;;;11.10;6.07;;;4.90;99.90;;;;;;12269719;28;20138;-39
2021/11/25 01:12:31;;;;;;;10.35;6.32;;;4.80;99.90;;;;;;12270953;28;20051;-39
2021/11/25 01:18:36;;;;;;;11.02;6.70;;;4.80;99.90;;;;;;12276606;28;20060;-38
2021/11/25 01:24:39;;;;;;;11.48;6.60;;;4.80;99.90;;;;;;12268986;28;20512;-39
2021/11/25 01:30:45;;;;;;;11.98;7.32;;;4.80;99.90;;;;;;12268244;28;20058;-38
2021/11/25 01:36:47;;;;;;;11.15;6.72;;;4.80;99.90;;;;;;12270105;28;20144;-39
2021/11/25 01:42:49;;;;;;;10.05;7.13;;;4.70;99.90;;;;;;12272213;28;20047;-39
2021/11/25 01:48:53;;;;;;;9.83;7.20;;;4.70;99.90;;;;;;12249296;28;20090;-38
2021/11/25 01:54:55;;;;;;;12.68;7.70;;;4.70;99.90;;;;;;12266251;28;20089;-38
2021/11/25 02:01:06;;;;;;;11.80;7.57;;;4.70;99.90;;;;;;12270353;28;20051;-39
2021/11/25 02:07:10;;;;;;;10.98;7.18;;;4.70;99.90;;;;;;12271723;28;20051;-38
2021/11/25 02:13:13;;;;;;;;;;;4.60;99.90;;;;;;12265506;28;20070;-38
2021/11/25 02:19:22;;;;;;;10.27;6.72;;;4.60;99.90;;;;;;12272803;28;20025;-39
2021/11/25 02:25:24;;;;;;;9.70;6.68;;;4.60;99.90;;;;;;12272751;28;20059;-39
2021/11/25 02:31:25;;;;;;;11.57;6.07;;;4.70;99.90;;;;;;12270794;28;20129;-39
2021/11/25 02:37:28;;;;;;;11.02;6.05;;;4.70;99.90;;;;;;12268245;28;20393;-39
2021/11/25 02:43:31;;;;;;;8.10;6.15;;;4.60;99.90;;;;;;12263433;28;20554;-39
2021/11/25 02:49:33;;;;;;;10.83;6.67;;;4.70;99.90;;;;;;12255344;28;20055;-38
2021/11/25 02:55:36;;;;;;;8.57;6.10;;;4.60;99.90;;;;;;12267181;28;20523;-38
2021/11/25 03:01:38;;;;;;;9.63;5.88;;;4.50;99.90;;;;;;12267999;28;20071;-39
2021/11/25 03:07:41;;;;;;;9.00;5.95;;;4.50;99.90;;;;;;12265080;28;20055;-39
2021/11/25 03:13:45;;;;;;;11.07;6.45;;;4.50;99.90;;;;;;12266227;28;20138;-38
2021/11/25 03:19:48;;;;;;;10.27;5.78;;;4.60;99.90;;;;;;12267791;28;20059;-38
2021/11/25 03:25:54;;;;;;;7.88;5.45;;;4.60;99.90;;;;;;12265885;28;20637;-37
2021/11/25 03:31:56;;;;;;;9.95;6.47;;;4.80;99.90;;;;;;12263546;28;20066;-38
2021/11/25 03:37:59;;;;;;;9.93;5.63;;;4.70;99.90;;;;;;12247566;28;20192;-39
2021/11/25 03:44:03;;;;;;;8.90;6.13;;;4.70;99.90;;;;;;12240600;28;20582;-39
2021/11/25 03:50:05;;;;;;;9.63;6.68;;;4.60;99.90;;;;;;12267814;28;20050;-37
2021/11/25 03:56:07;;;;;;;9.93;6.30;;;4.60;99.90;;;;;;12267900;28;20055;-39
2021/11/25 04:02:09;;;;;;;13.48;6.40;;;4.50;99.90;;;;;;12266183;28;20051;-39
2021/11/25 04:08:12;;;;;;;10.88;7.00;;;4.40;99.90;;;;;;12262393;28;20062;-38
2021/11/25 04:14:14;;;;;;;10.30;6.78;;;4.50;99.90;;;;;;12266739;28;20051;-37
2021/11/25 04:20:17;;;;;;;10.32;6.43;;;4.40;99.90;;;;;;12266424;28;20047;-38
2021/11/25 04:26:22;;;;;;;9.40;6.07;;;4.50;99.90;;;;;;12266546;28;20075;-38
2021/11/25 04:38:49;;;;;;;9.90;7.30;;;4.50;99.90;;;;;;12269228;28;20055;-39
2021/11/25 04:44:51;;;;;;;9.30;6.77;;;4.40;99.90;;;;;;12269435;28;20047;-38
2021/11/25 04:50:54;;;;;;;9.75;6.60;;;4.40;99.90;;;;;;12273227;28;20090;-38
2021/11/25 04:56:57;;;;;;;8.63;6.70;;;4.40;99.90;;;;;;12271986;28;20743;-39
2021/11/25 05:03:00;;;;;;;9.48;6.65;;;4.40;99.90;;;;;;12270040;28;20597;-38
2021/11/25 05:09:04;;;;;;;10.95;7.38;;;4.40;99.90;;;;;;12270152;28;20114;-38
2021/11/25 05:15:08;;;;;;;9.70;7.45;;;4.40;99.90;;;;;;12263306;28;20079;-39
2021/11/25 05:21:10;;;;;;;9.70;7.35;;;4.40;99.90;;;;;;12270980;28;20074;-37
2021/11/25 05:27:14;;;;;;;9.88;7.68;;;4.40;99.90;;;;;;12267848;28;20058;-38
2021/11/25 05:33:17;;;;;;;11.27;7.65;;;4.40;99.90;;;;;;12270032;28;20043;-38
2021/11/25 05:39:19;;;;;;;10.23;7.57;;;4.50;99.90;;;;;;12275902;28;20058;-39
2021/11/25 05:45:23;;;;;;;11.70;8.60;;;4.40;99.90;;;;;;12275819;28;20061;-38
2021/11/25 05:51:27;;;;;;;11.60;8.13;;;4.40;99.90;;;;;;12260421;28;20067;-39
2021/11/25 05:57:31;;;;;;;12.88;8.25;;;4.30;99.90;;;;;;12266608;28;20420;-38
2021/11/25 06:03:33;;;;;;;11.98;8.48;;;4.20;99.90;;;;;;12267745;28;20050;-39
2021/11/25 06:09:42;;;;;;;12.23;8.50;;;4.10;99.90;;;;;;12278793;28;20059;-39
2021/11/25 06:15:47;;;;;;;12.00;9.13;;;3.90;99.90;;;;;;12275081;28;20051;-38
2021/11/25 06:21:49;;;;;;;14.23;9.45;;;3.80;99.90;;;;;;12271739;28;20052;-39
2021/11/25 06:27:51;;;;;;;12.52;9.55;;;3.80;99.90;;;;;;12269212;28;20063;-39
2021/11/25 06:33:53;;;;;;;12.68;9.18;;;3.80;99.90;;;;;;12264945;28;20653;-38
2021/11/25 06:39:55;;;;;;;14.52;10.15;;;3.70;99.90;;;;;;12268773;28;20154;-39
2021/11/25 06:45:57;;;;;;;14.15;11.23;;;3.80;99.90;;;;;;12265050;28;20499;-37
2021/11/25 06:52:01;;;;;;;21.43;12.03;;;3.60;99.90;;;;;;12262552;28;20098;-38
2021/11/25 06:58:03;;;;;;;18.00;12.32;;;3.40;99.90;;;;;;12264733;28;20052;-37
2021/11/25 07:04:05;;;;;;;18.42;12.98;;;3.40;99.90;;;;;;12264361;28;20079;-38
2021/11/25 07:10:14;;;;;;;17.23;12.10;;;3.40;99.90;;;;;;12269388;28;20054;-38
2021/11/25 07:16:16;;;;;;;20.33;13.52;;;3.40;99.90;;;;;;12267935;28;20130;-39
2021/11/25 07:22:18;;;;;;;17.60;13.05;;;3.30;99.90;;;;;;12264794;28;20043;-39
2021/11/25 07:28:22;;;;;;;19.52;13.77;;;3.30;99.90;;;;;;12272539;28;20043;-38
2021/11/25 07:34:27;;;;;;;23.52;14.85;;;3.40;99.90;;;;;;12245226;28;20058;-38
2021/11/25 07:40:28;;;;;;;21.10;15.73;;;3.50;99.90;;;;;;12268039;28;20067;-37
2021/11/25 07:46:31;;;;;;;22.38;16.30;;;3.50;99.90;;;;;;12268041;28;20451;-38
2021/11/25 07:52:34;;;;;;;20.42;15.65;;;3.70;99.90;;;;;;12268793;28;20464;-37
2021/11/25 07:58:37;;;;;;;24.00;17.45;;;3.70;99.90;;;;;;12268555;28;20142;-39
2021/11/25 08:04:43;;;;;;;25.88;17.52;;;3.60;99.90;;;;;;12270889;28;20055;-38
2021/11/25 08:10:52;;;;;;;23.40;16.55;;;3.60;99.90;;;;;;12270534;28;20106;-38
2021/11/25 08:17:00;;;;;;;22.02;15.77;;;3.70;99.90;;;;;;12275124;28;20048;-37
2021/11/25 08:23:03;;;;;;;23.30;16.25;;;3.60;99.90;;;;;;12272111;28;20048;-39
2021/11/25 08:29:05;;;;;;;22.98;15.85;;;3.50;99.90;;;;;;12259913;28;20456;-38
2021/11/25 08:35:08;;;;;;;20.58;15.55;;;3.60;99.90;;;;;;12281660;28;20050;-38
2021/11/25 08:41:14;;;;;;;24.77;15.30;;;3.60;99.90;;;;;;12270605;28;20050;-39
2021/11/25 08:47:16;;;;;;;20.55;14.80;;;3.80;99.90;;;;;;12260978;28;20047;-39
2021/11/25 08:53:22;;;;;;;18.70;14.30;;;4.00;99.90;;;;;;12269360;28;20458;-39
2021/11/25 08:59:25;;;;;;;18.80;14.25;;;4.40;99.90;;;;;;12275968;28;20551;-38
2021/11/25 09:05:32;;;;;;;18.88;14.02;;;4.40;99.90;;;;;;12279876;28;20737;-38
2021/11/25 09:11:37;;;;;;;22.65;14.80;;;4.40;99.90;;;;;;12264149;28;20394;-40
2021/11/25 09:17:39;;;;;;;18.77;14.07;;;4.50;99.90;;;;;;12272421;28;20059;-38
2021/11/25 09:24:04;;;;;;;20.95;14.68;;;4.40;99.90;;;;;;12268393;28;20294;-38
2021/11/25 09:30:07;;;;;;;22.25;15.93;;;4.50;99.90;;;;;;12274143;28;20055;-38
2021/11/25 09:36:10;;;;;;;22.08;16.48;;;4.50;99.90;;;;;;12274690;28;20051;-39
2021/11/25 09:42:18;;;;;;;21.65;16.08;;;4.50;99.90;;;;;;12274614;28;20082;-39
2021/11/25 09:48:24;;;;;;;26.23;17.97;;;4.50;99.90;;;;;;12273524;28;20070;-39
2021/11/25 09:54:27;;;;;;;24.35;16.63;;;4.70;99.90;;;;;;12270009;28;20043;-39
2021/11/25 10:00:32;;;;;;;29.13;17.33;;;4.70;99.90;;;;;;12267364;28;20159;-39
2021/11/25 10:06:50;;;;;;;23.83;17.05;;;4.90;99.90;;;;;;12267401;28;20102;-40
2021/11/25 10:13:13;;;;;;;24.98;17.20;;;4.90;99.90;;;;;;12273776;28;20082;-39
2021/11/25 10:19:21;;;;;;;27.63;18.45;;;4.90;99.90;;;;;;12268261;28;20051;-38
2021/11/25 10:25:24;;;;;;;28.02;19.13;;;4.90;99.90;;;;;;12257456;28;20520;-39
2021/11/25 10:31:34;;;;;;;26.48;18.88;;;4.90;99.90;;;;;;12269929;28;20126;-38
2021/11/25 10:44:17;;;;;;;27.52;19.17;;;5.10;99.90;;;;;;12269131;28;20138;-39
2021/11/25 10:50:19;;;;;;;29.92;19.65;;;4.80;99.90;;;;;;12268000;28;20043;-38
2021/11/25 10:56:38;;;;;;;32.45;19.50;;;4.90;99.90;;;;;;12269964;28;20059;-38
2021/11/25 11:02:41;;;;;;;28.23;18.80;;;4.90;99.90;;;;;;12269634;28;20058;-38
2021/11/25 11:08:45;;;;;;;29.83;19.47;;;5.00;99.90;;;;;;12269119;28;20091;-38
2021/11/25 11:15:25;;;;;;;26.63;18.45;;;5.30;99.90;;;;;;12267631;28;20462;-39
2021/11/25 11:21:45;;;;;;;23.60;16.45;;;5.20;99.90;;;;;;12264488;28;20495;-38
2021/11/25 11:27:50;;;;;;;26.20;17.00;;;5.20;99.90;;;;;;12250800;28;20058;-37
2021/11/25 11:33:54;;;;;;;25.77;18.17;;;5.10;99.90;;;;;;12269166;28;20074;-38
2021/11/25 11:39:57;;;;;;;;;;;5.00;99.90;;;;;;12252662;28;20153;-39
2021/11/25 11:46:20;;;;;;;26.35;18.20;;;5.00;99.90;;;;;;12268906;28;19965;-38
2021/11/25 11:52:26;;;;;;;23.55;16.77;;;5.20;99.90;;;;;;12262277;28;20113;-39
2021/11/25 11:58:58;;;;;;;22.52;16.92;;;5.20;99.90;;;;;;12273181;28;20047;-38
2021/11/25 12:05:07;;;;;;;23.05;16.58;;;5.20;99.90;;;;;;12256405;28;20051;-38
2021/11/25 12:11:11;;;;;;;23.55;17.15;;;5.10;99.90;;;;;;12265760;28;20052;-38
2021/11/25 12:17:34;;;;;;;22.63;16.57;;;4.90;99.90;;;;;;12270888;28;20051;-38
2021/11/25 12:23:39;;;;;;;23.98;17.33;;;4.70;99.90;;;;;;12265487;28;20350;-39
2021/11/25 12:30:02;;;;;;;25.95;18.35;;;4.60;99.90;;;;;;12271922;28;20426;-39
2021/11/25 12:36:08;;;;;;;27.33;19.25;;;4.70;99.90;;;;;;12252707;28;20093;-38
2021/11/25 12:42:17;;;;;;;26.70;18.38;;;4.70;99.90;;;;;;12263730;28;20051;-37
2021/11/25 12:48:44;;;;;;;28.77;20.35;;;4.60;99.90;;;;;;12260765;28;20051;-38
2021/11/25 12:54:46;;;;;;;29.58;20.40;;;4.60;99.90;;;;;;12237135;28;20082;-38
2021/11/25 13:00:49;;;;;;;31.33;21.58;;;4.60;99.90;;;;;;12264923;28;20688;-39
2021/11/25 13:06:55;;;;;;;31.70;21.63;;;4.40;99.90;;;;;;12255481;28;20104;-38
2021/11/25 13:13:17;;;;;;;31.48;21.60;;;4.40;99.90;;;;;;12226310;29;20547;-39
2021/11/25 13:19:21;;;;;;;30.90;22.02;;;4.30;99.90;;;;;;12221704;29;20051;-38
2021/11/25 13:25:23;;;;;;;34.33;22.95;;;4.20;99.90;;;;;;12219937;29;20051;-39
2021/11/25 13:31:25;;;;;;;38.75;25.33;;;4.30;99.90;;;;;;12222485;29;20055;-39
2021/11/25 13:37:30;;;;;;;33.10;21.23;;;4.20;99.90;;;;;;12218486;29;20048;-38
2021/11/25 13:43:47;;;;;;;35.65;25.13;;;4.20;99.90;;;;;;12206880;29;20047;-39
2021/11/25 13:49:54;;;;;;;40.40;25.95;;;4.00;99.90;;;;;;12224750;29;20055;-39
2021/11/25 13:55:59;;;;;;;40.33;26.10;;;3.90;99.90;;;;;;12224271;29;20116;-39
2021/11/25 14:02:01;;;;;;;41.67;26.83;;;3.80;99.90;;;;;;12227579;29;20051;-38
2021/11/25 14:08:07;;;;;;;45.80;29.15;;;3.80;99.90;;;;;;12221610;29;20060;-39
2021/11/25 14:14:10;;;;;;;42.15;28.52;;;3.70;99.90;;;;;;12220104;29;20508;-38
2021/11/25 14:20:22;;;;;;;45.20;29.40;;;3.70;99.90;;;;;;12221826;29;20170;-39
2021/11/25 14:26:50;;;;;;;44.42;29.10;;;3.60;99.90;;;;;;12222922;29;20091;-38
2021/11/25 14:33:05;;;;;;;48.80;29.92;;;3.60;99.90;;;;;;12216137;29;20051;-39
2021/11/25 14:39:17;;;;;;;48.47;30.75;;;3.60;99.90;;;;;;12212196;29;20048;-38
2021/11/25 14:45:20;;;;;;;43.60;30.02;;;3.60;99.90;;;;;;12215624;29;20052;-38
2021/11/25 14:51:24;;;;;;;47.17;29.42;;;3.60;99.90;;;;;;12214068;29;20048;-38
2021/11/25 14:57:27;;;;;;;45.38;30.30;;;3.70;99.90;;;;;;12214894;29;20055;-38
2021/11/25 15:03:31;;;;;;;48.33;31.30;;;3.70;99.90;;;;;;12214146;29;20052;-39
2021/11/25 15:09:35;;;;;;;44.90;30.02;;;3.60;99.90;;;;;;12212392;29;20737;-39
2021/11/25 15:15:42;;;;;;;46.47;30.33;;;3.70;99.90;;;;;;12213175;29;20147;-39
2021/11/25 15:21:45;;;;;;;46.22;30.85;;;3.70;99.90;;;;;;12216409;29;20305;-39
2021/11/25 15:27:48;;;;;;;42.25;29.58;;;3.70;99.90;;;;;;12221991;29;20098;-38
2021/11/25 15:33:51;;;;;;;46.40;29.50;;;3.80;99.90;;;;;;12210729;29;20126;-40
2021/11/25 15:39:53;;;;;;;47.25;30.35;;;3.90;99.90;;;;;;12214621;29;20461;-37
2021/11/25 15:45:56;;;;;;;50.47;31.95;;;3.90;99.90;;;;;;12219763;29;20099;-38
2021/11/25 15:51:58;;;;;;;54.97;33.63;;;3.80;99.90;;;;;;12215469;29;20181;-39
2021/11/25 15:58:01;;;;;;;58.15;34.38;;;3.70;99.90;;;;;;12212258;29;20522;-38
2021/11/25 16:04:14;;;;;;;57.50;34.00;;;3.70;99.90;;;;;;12209986;29;20048;-39
2021/11/25 16:10:16;;;;;;;62.83;34.75;;;3.70;99.90;;;;;;12240289;28;20051;-39
2021/11/25 16:16:18;;;;;;;66.70;34.08;;;3.70;99.90;;;;;;12267904;28;20055;-39
2021/11/25 16:22:21;;;;;;;66.93;34.70;;;3.80;99.90;;;;;;12260895;28;20044;-38
2021/11/25 16:28:23;;;;;;;76.57;37.40;;;3.80;99.90;;;;;;12258094;28;20106;-39
2021/11/25 16:34:27;;;;;;;69.97;35.90;;;3.80;99.90;;;;;;12272490;28;20080;-37
2021/11/25 16:40:29;;;;;;;73.45;37.22;;;3.80;99.90;;;;;;12276843;28;20067;-38
2021/11/25 16:52:51;;;;;;;75.00;37.03;;;3.90;99.90;;;;;;12274848;28;20056;-38
2021/11/25 16:58:53;;;;;;;79.15;39.75;;;3.90;99.90;;;;;;12255362;28;20066;-39
2021/11/25 17:04:57;;;;;;;76.57;38.00;;;3.80;99.90;;;;;;12275365;28;20051;-38
2021/11/25 17:11:00;;;;;;;73.78;36.15;;;3.90;99.90;;;;;;12275723;28;20147;-38
2021/11/25 17:17:04;;;;;;;75.22;36.47;;;4.00;99.90;;;;;;12260922;28;20134;-38
2021/11/25 17:23:06;;;;;;;83.10;39.20;;;4.10;99.90;;;;;;12279555;28;20052;-40
2021/11/25 17:29:09;;;;;;;82.00;40.45;;;4.10;99.90;;;;;;12279942;28;20481;-38
2021/11/25 17:35:11;;;;;;;87.60;39.17;;;4.00;99.90;;;;;;12277163;28;20051;-37
2021/11/25 17:41:13;;;;;;;78.78;37.38;;;4.00;99.90;;;;;;12274955;28;20393;-38
2021/11/25 17:47:16;;;;;;;87.53;39.78;;;4.00;99.90;;;;;;12273081;28;20094;-37
2021/11/25 17:53:18;;;;;;;91.50;42.20;;;4.10;99.90;;;;;;12273914;28;20052;-37
2021/11/25 17:59:20;;;;;;;102.70;44.95;;;4.00;99.90;;;;;;12273523;28;20146;-38
2021/11/25 18:05:22;;;;;;;89.38;39.35;;;4.10;99.90;;;;;;12273186;28;20984;-38
2021/11/25 18:11:25;;;;;;;84.07;38.95;;;4.10;99.90;;;;;;12257964;28;20079;-38
2021/11/25 18:17:27;;;;;;;89.50;39.75;;;4.10;99.90;;;;;;12271863;28;20062;-37
2021/11/25 18:23:29;;;;;;;87.50;39.53;;;4.20;99.90;;;;;;12271879;28;20051;-39
2021/11/25 18:29:31;;;;;;;85.78;40.58;;;4.20;99.90;;;;;;12250278;28;20147;-38
2021/11/25 18:35:33;;;;;;;80.13;39.22;;;4.20;99.90;;;;;;12268546;28;20081;-39
2021/11/25 18:41:37;;;;;;;82.28;38.70;;;4.20;99.90;;;;;;12270039;28;20058;-37
2021/11/25 18:47:45;;;;;;;81.80;39.03;;;4.20;99.90;;;;;;12271343;28;20055;-39
2021/11/25 18:53:56;;;;;;;86.28;40.85;;;4.20;99.90;;;;;;12261108;28;20039;-38
2021/11/25 19:00:10;;;;;;;81.60;38.28;;;4.20;99.90;;;;;;12276866;28;20055;-39
2021/11/25 19:06:25;;;;;;;77.05;36.95;;;4.10;99.90;;;;;;12278399;28;20142;-38
2021/11/25 19:12:39;;;;;;;76.82;36.80;;;4.20;99.90;;;;;;12271124;28;20058;-39
2021/11/25 19:18:54;;;;;;;82.03;35.20;;;4.20;99.90;;;;;;12255748;28;20227;-39
2021/11/25 19:25:03;;;;;;;66.32;32.95;;;4.20;99.90;;;;;;12270577;28;20047;-39
2021/11/25 19:31:10;;;;;;;61.70;29.98;;;4.30;99.90;;;;;;12272655;28;20054;-38
2021/11/25 19:37:12;;;;;;;60.50;30.33;;;4.30;99.90;;;;;;12255588;28;20058;-37
2021/11/25 19:43:15;;;;;;;66.53;29.70;;;4.30;99.90;;;;;;12271077;28;20044;-38
2021/11/25 19:49:18;;;;;;;65.47;28.77;;;4.40;99.90;;;;;;12272649;28;20051;-39
2021/11/25 19:55:21;;;;;;;61.88;30.00;;;4.30;99.90;;;;;;12266122;28;20040;-39
2021/11/25 20:01:25;;;;;;;57.47;28.05;;;4.40;99.90;;;;;;12267916;28;20077;-37
2021/11/25 20:07:28;;;;;;;56.47;27.75;;;4.40;99.90;;;;;;12254530;28;20504;-39
2021/11/25 20:13:30;;;;;;;60.92;27.15;;;4.50;99.90;;;;;;12224937;29;20498;-38
2021/11/25 20:19:33;;;;;;;56.50;27.73;;;4.40;99.90;;;;;;12231198;29;20761;-37
2021/11/25 20:25:37;;;;;;;60.97;28.50;;;4.40;99.90;;;;;;12232757;29;20669;-40
2021/11/25 20:31:39;;;;;;;70.70;31.17;;;4.30;99.90;;;;;;12229123;29;20047;-38
2021/11/25 20:37:42;;;;;;;59.10;28.25;;;4.20;99.90;;;;;;12236866;29;20092;-38
2021/11/25 20:43:46;;;;;;;61.63;28.70;;;4.20;99.90;;;;;;12206227;29;20115;-38
2021/11/25 20:49:51;;;;;;;60.93;26.73;;;4.10;99.90;;;;;;12235093;29;20067;-39
2021/11/25 20:55:55;;;;;;;59.35;26.25;;;4.20;99.90;;;;;;12232994;29;20044;-37
2021/11/25 21:01:57;;;;;;;59.67;26.67;;;4.20;99.90;;;;;;12224188;29;20397;-37
2021/11/25 21:07:59;;;;;;;57.13;25.52;;;4.20;99.90;;;;;;12220484;29;20123;-37
2021/11/25 21:14:03;;;;;;;60.22;25.48;;;4.00;99.90;;;;;;12228218;29;20048;-38
2021/11/25 21:20:09;;;;;;;61.95;27.05;;;4.00;99.90;;;;;;12231005;29;20055;-38
2021/11/25 21:26:11;;;;;;;53.40;24.50;;;4.00;99.90;;;;;;12184816;29;20154;-39
2021/11/25 21:32:13;;;;;;;55.33;25.67;;;3.90;99.90;;;;;;12224646;29;20079;-39
2021/11/25 21:38:16;;;;;;;60.67;27.25;;;3.90;99.90;;;;;;12226780;29;20936;-39
2021/11/25 21:44:19;;;;;;;62.40;25.73;;;3.80;99.90;;;;;;12224631;29;20574;-39
2021/11/25 21:50:25;;;;;;;57.67;25.17;;;3.90;99.90;;;;;;12222979;29;20063;-38
2021/11/25 21:56:30;;;;;;;61.15;26.95;;;3.80;99.90;;;;;;12220991;29;20055;-39
2021/11/25 22:02:32;;;;;;;62.85;25.25;;;3.80;99.90;;;;;;12222581;29;20048;-38
2021/11/25 22:08:34;;;;;;;62.50;26.35;;;3.70;99.90;;;;;;12250965;28;20066;-39
2021/11/25 22:14:36;;;;;;;62.78;26.13;;;3.70;99.90;;;;;;12268679;28;20447;-39
2021/11/25 22:20:44;;;;;;;55.53;25.40;;;3.70;99.90;;;;;;12270247;28;20492;-39
2021/11/25 22:26:46;;;;;;;54.60;24.55;;;3.70;99.90;;;;;;12271699;28;20094;-38
2021/11/25 22:32:49;;;;;;;65.35;25.88;;;3.70;99.90;;;;;;12273431;28;20624;-38
2021/11/25 22:38:51;;;;;;;53.92;23.85;;;3.70;99.90;;;;;;12271522;28;20047;-40
2021/11/25 22:44:53;;;;;;;51.00;22.08;;;3.70;99.90;;;;;;12272992;28;20058;-39
2021/11/25 22:50:56;;;;;;;58.03;24.33;;;3.80;99.90;;;;;;12272248;28;20059;-39
2021/11/25 22:56:59;;;;;;;60.28;23.13;;;3.70;99.90;;;;;;12269341;28;20055;-39
2021/11/25 23:03:01;;;;;;;52.38;21.80;;;3.80;99.90;;;;;;12268576;28;20134;-38
2021/11/25 23:09:04;;;;;;;50.70;21.88;;;3.80;99.90;;;;;;12269172;28;20062;-38
2021/11/25 23:15:06;;;;;;;52.67;21.80;;;3.90;99.90;;;;;;12268549;28;20055;-38
2021/11/25 23:21:08;;;;;;;51.03;20.38;;;3.90;99.90;;;;;;12268517;28;20134;-39
2021/11/25 23:27:30;;;;;;;51.47;20.75;;;3.80;99.90;;;;;;12266943;28;20047;-38
2021/11/25 23:33:32;;;;;;;48.17;19.77;;;3.80;99.90;;;;;;12265821;28;20054;-38
2021/11/25 23:39:35;;;;;;;53.97;20.95;;;3.90;99.90;;;;;;12264646;28;20055;-38
2021/11/25 23:45:38;;;;;;;39.58;19.00;;;3.80;99.90;;;;;;12266476;28;20074;-39
2021/11/25 23:51:49;;;;;;;51.25;20.63;;;3.90;99.90;;;;;;12263592;28;20059;-39
2021/11/25 23:57:51;;;;;;;45.45;19.90;;;3.90;99.90;;;;;;12265243;28;20132;-39
